Airport View

Enter AWOS ICAO identifier for current METAR.

ex. KFNL

KAIK 261210Z AUTO 01003KT 10SM CLR 23/21 A3018 RMK AO2

26 Jun 2019 12:12

Frequency: 118.025

Phone: 803-643-8664

Other Area AWOS: KDNL - KAGS - KBNL - KCAE

TAF KDNL 261120Z 2612/2712 34005KT P6SM SCT250 FM261500 02007KT P6SM SCT060 BKN250 FM270200 03003KT P6SM SCT250